Time;durP1;ratioP1;P1;durP2;ratioP2;P2;SDS_P1;SDS_P2;PMS_P1;PMS_P2;Temp;Humidity;BMP_temperature;BMP_pressure;BME280_temperature;BME280_humidity;BME280_pressure;Samples;Min_cycle;Max_cycle;Signal;HPM_P1;HPM_P2
2023/10/28 00:01:33;;;;;;;3.88;1.60;;;7.90;99.90;;;;;;7410694;19;20019;-74
2023/10/28 00:04:06;;;;;;;2.15;1.20;;;8.00;99.90;;;;;;7410974;19;20025;-75
2023/10/28 00:06:39;;;;;;;2.90;1.23;;;8.20;99.90;;;;;;7405857;19;20022;-75
2023/10/28 00:09:11;;;;;;;2.22;0.90;;;8.60;99.90;;;;;;7411796;19;20353;-74
2023/10/28 00:11:45;;;;;;;1.48;1.13;;;8.80;99.90;;;;;;7413350;19;20078;-75
2023/10/28 00:14:19;;;;;;;;;;;9.00;99.90;;;;;;7415910;19;20543;-73
2023/10/28 00:16:51;;;;;;;;;;;9.10;99.90;;;;;;7415389;19;21319;-73
2023/10/28 00:19:24;;;;;;;1.20;0.90;;;9.20;99.90;;;;;;7422438;19;20716;-76
2023/10/28 00:21:56;;;;;;;0.95;0.82;;;9.20;99.90;;;;;;7416882;19;20034;-76
2023/10/28 00:24:28;;;;;;;1.95;1.10;;;9.20;99.90;;;;;;7414377;19;20011;-75
2023/10/28 00:27:01;;;;;;;4.55;1.40;;;9.10;99.90;;;;;;7400253;19;20126;-75
2023/10/28 00:29:33;;;;;;;1.45;1.02;;;9.10;99.90;;;;;;7418104;19;20025;-75
2023/10/28 00:32:06;;;;;;;1.63;0.90;;;9.00;99.90;;;;;;7428787;19;20090;-75
2023/10/28 00:34:38;;;;;;;1.98;1.02;;;9.10;99.90;;;;;;7407401;19;20021;-76
2023/10/28 00:37:11;;;;;;;1.35;1.00;;;9.00;99.90;;;;;;7437793;19;20097;-75
2023/10/28 00:39:46;;;;;;;2.75;0.90;;;9.00;99.90;;;;;;7405966;19;20382;-76
2023/10/28 00:42:20;;;;;;;2.92;0.82;;;9.00;99.90;;;;;;7419161;19;20018;-75
2023/10/28 00:44:55;;;;;;;5.28;1.13;;;9.00;99.90;;;;;;7388469;19;20025;-75
2023/10/28 00:47:28;;;;;;;0.77;0.63;;;9.00;99.90;;;;;;7436534;19;20019;-75
2023/10/28 00:50:02;;;;;;;1.55;0.98;;;9.00;99.90;;;;;;7428967;19;20018;-75
2023/10/28 00:52:39;;;;;;;3.58;0.98;;;9.00;99.90;;;;;;7404434;19;20014;-75
2023/10/28 00:55:13;;;;;;;1.10;0.70;;;9.00;99.90;;;;;;7410540;19;20022;-74
2023/10/28 00:57:45;;;;;;;1.25;0.80;;;9.00;99.90;;;;;;7400610;19;20254;-74
2023/10/28 01:00:18;;;;;;;1.23;0.90;;;9.00;99.90;;;;;;7397271;19;20018;-74
2023/10/28 01:02:52;;;;;;;3.45;1.35;;;9.00;99.90;;;;;;7427580;19;20095;-74
2023/10/28 01:05:25;;;;;;;2.60;1.02;;;9.00;99.90;;;;;;7429702;19;20021;-74
2023/10/28 01:07:58;;;;;;;1.10;0.80;;;9.10;99.90;;;;;;7408557;19;22617;-73
2023/10/28 01:10:33;;;;;;;1.00;0.85;;;9.10;99.90;;;;;;7413540;19;20150;-74
2023/10/28 01:13:08;;;;;;;0.80;0.60;;;9.10;99.90;;;;;;7381414;19;20595;-74
2023/10/28 01:15:40;;;;;;;3.67;1.73;;;9.10;99.90;;;;;;7401169;19;20024;-74
2023/10/28 01:18:13;;;;;;;0.40;0.40;;;9.00;99.90;;;;;;7416002;19;20015;-74
2023/10/28 01:20:46;;;;;;;3.15;0.65;;;9.10;99.90;;;;;;7427549;19;20018;-74
2023/10/28 01:23:18;;;;;;;0.70;0.50;;;9.10;99.90;;;;;;7392129;19;21314;-74
2023/10/28 01:25:51;;;;;;;1.08;0.52;;;9.10;99.90;;;;;;7413100;19;20010;-75
2023/10/28 01:28:24;;;;;;;2.97;0.68;;;9.20;99.90;;;;;;7399412;19;22366;-74
2023/10/28 01:30:57;;;;;;;1.42;0.65;;;9.10;99.90;;;;;;7410550;19;20019;-74
2023/10/28 01:33:30;;;;;;;3.50;0.65;;;9.20;99.90;;;;;;7396265;19;20022;-74
2023/10/28 01:36:02;;;;;;;3.90;0.50;;;9.20;99.90;;;;;;7396630;19;20932;-75
2023/10/28 01:38:36;;;;;;;1.38;0.52;;;9.20;99.90;;;;;;7399508;19;20022;-74
2023/10/28 01:41:12;;;;;;;1.55;0.50;;;9.30;99.90;;;;;;7387156;19;20026;-74
2023/10/28 01:43:46;;;;;;;2.80;0.60;;;9.30;99.90;;;;;;7421542;19;20056;-74
2023/10/28 01:46:18;;;;;;;0.50;0.50;;;9.30;99.90;;;;;;7410180;19;20057;-74
2023/10/28 01:48:50;;;;;;;0.80;0.50;;;9.30;99.90;;;;;;7406637;19;20287;-75
2023/10/28 01:51:23;;;;;;;0.60;0.40;;;9.30;99.90;;;;;;7399842;19;20784;-75
2023/10/28 01:53:55;;;;;;;0.75;0.63;;;9.40;99.90;;;;;;7382808;19;20018;-75
2023/10/28 01:56:28;;;;;;;0.88;0.68;;;9.30;99.90;;;;;;7392247;19;20014;-75
2023/10/28 01:59:01;;;;;;;1.05;0.60;;;9.30;99.90;;;;;;7419959;19;22021;-74
2023/10/28 02:01:34;;;;;;;2.00;0.90;;;9.50;99.90;;;;;;7413265;19;20015;-74
2023/10/28 02:04:07;;;;;;;0.70;0.50;;;9.60;99.90;;;;;;7397415;19;20022;-73
2023/10/28 02:06:40;;;;;;;1.80;0.50;;;9.50;99.90;;;;;;7394884;19;20022;-74
2023/10/28 02:09:13;;;;;;;1.27;0.43;;;9.50;99.90;;;;;;7390715;19;20033;-74
2023/10/28 02:11:47;;;;;;;2.00;0.40;;;9.50;99.90;;;;;;7396187;19;21831;-74
2023/10/28 02:14:23;;;;;;;0.57;0.40;;;9.50;99.90;;;;;;7432021;19;20010;-74
2023/10/28 02:16:56;;;;;;;0.82;0.50;;;9.60;99.90;;;;;;7388936;19;20042;-73
2023/10/28 02:19:29;;;;;;;0.82;0.63;;;9.60;99.90;;;;;;7410225;19;20018;-73
2023/10/28 02:22:02;;;;;;;2.17;0.70;;;9.60;99.90;;;;;;7409452;19;22309;-73
2023/10/28 02:24:46;;;;;;;1.00;0.50;;;9.60;99.90;;;;;;7410461;19;20053;-73
2023/10/28 02:27:20;;;;;;;2.03;0.65;;;9.60;99.90;;;;;;7439243;19;20260;-73
2023/10/28 02:29:52;;;;;;;0.68;0.50;;;9.60;99.90;;;;;;7405733;19;20027;-73
2023/10/28 02:32:25;;;;;;;0.70;0.50;;;9.60;99.90;;;;;;7422700;19;21748;-74
2023/10/28 02:34:59;;;;;;;3.53;0.70;;;9.60;99.90;;;;;;7383188;19;20018;-73
2023/10/28 02:37:32;;;;;;;1.13;0.60;;;9.50;99.90;;;;;;7405542;19;21012;-74
2023/10/28 02:40:07;;;;;;;1.80;0.90;;;9.60;99.90;;;;;;7409834;19;21571;-73
2023/10/28 02:42:39;;;;;;;2.13;0.50;;;9.60;99.90;;;;;;7416769;19;20022;-73
2023/10/28 02:45:11;;;;;;;2.42;0.55;;;9.60;99.90;;;;;;7379901;19;20038;-74
2023/10/28 02:47:44;;;;;;;2.00;0.87;;;9.70;99.90;;;;;;7423555;19;20014;-73
2023/10/28 02:50:18;;;;;;;1.90;0.70;;;9.70;99.90;;;;;;7400981;19;22163;-74
2023/10/28 02:52:51;;;;;;;2.05;0.85;;;9.70;99.90;;;;;;7397027;19;21201;-73
2023/10/28 02:55:24;;;;;;;2.90;0.70;;;9.70;99.90;;;;;;7406196;19;22148;-73
2023/10/28 02:57:56;;;;;;;0.88;0.60;;;9.60;99.90;;;;;;7386542;19;21720;-75
2023/10/28 03:00:29;;;;;;;1.83;0.60;;;9.60;99.90;;;;;;7398032;19;20035;-74
2023/10/28 03:03:03;;;;;;;2.65;0.70;;;9.70;99.90;;;;;;7382060;19;20025;-74
2023/10/28 03:05:35;;;;;;;2.15;0.75;;;9.70;99.90;;;;;;7417757;19;20078;-74
2023/10/28 03:08:08;;;;;;;5.45;0.90;;;9.70;99.90;;;;;;7379177;19;20015;-74
2023/10/28 03:10:41;;;;;;;0.90;0.60;;;9.60;99.90;;;;;;7411896;19;20014;-75
2023/10/28 03:13:14;;;;;;;2.45;0.73;;;9.60;99.90;;;;;;7381044;19;21077;-76
2023/10/28 03:15:47;;;;;;;1.50;0.75;;;9.60;99.90;;;;;;7401365;19;20019;-75
2023/10/28 03:18:19;;;;;;;1.80;0.60;;;9.60;99.90;;;;;;7418083;19;20106;-75
2023/10/28 03:20:55;;;;;;;3.70;0.55;;;9.60;99.90;;;;;;7403102;19;20772;-75
2023/10/28 03:23:28;;;;;;;3.42;0.73;;;9.50;99.90;;;;;;7409218;19;20010;-75
2023/10/28 03:26:00;;;;;;;4.25;0.50;;;9.40;99.90;;;;;;7412632;19;20082;-75
2023/10/28 03:28:33;;;;;;;2.08;0.73;;;9.40;99.90;;;;;;7379967;19;20043;-75
2023/10/28 03:31:12;;;;;;;3.15;0.60;;;9.40;99.90;;;;;;7394358;19;20018;-76
2023/10/28 03:33:46;;;;;;;2.85;0.90;;;9.50;99.90;;;;;;7355793;19;20544;-75
2023/10/28 03:36:19;;;;;;;1.10;0.57;;;9.50;99.90;;;;;;7359894;19;20077;-75
2023/10/28 03:38:52;;;;;;;2.40;1.00;;;9.50;99.90;;;;;;7394004;19;20027;-75
2023/10/28 03:41:25;;;;;;;1.30;0.57;;;9.50;99.90;;;;;;7376816;19;22062;-75
2023/10/28 03:43:57;;;;;;;2.15;0.80;;;9.40;99.90;;;;;;7365937;19;20010;-75
2023/10/28 03:46:30;;;;;;;2.83;0.70;;;9.40;99.90;;;;;;7383006;19;20018;-75
2023/10/28 03:49:03;;;;;;;1.38;0.57;;;9.30;99.90;;;;;;7387474;19;20741;-75
2023/10/28 03:51:36;;;;;;;2.17;0.95;;;9.30;99.90;;;;;;7392058;19;20587;-75
2023/10/28 03:54:09;;;;;;;1.55;0.60;;;9.30;99.90;;;;;;7381043;19;20021;-73
2023/10/28 03:56:41;;;;;;;1.65;0.55;;;9.30;99.90;;;;;;7373671;19;20019;-73
2023/10/28 03:59:14;;;;;;;1.75;0.63;;;9.20;99.90;;;;;;7364198;19;20303;-73
2023/10/28 04:01:47;;;;;;;2.55;0.80;;;9.20;99.90;;;;;;7374791;19;20045;-73
2023/10/28 04:04:19;;;;;;;0.95;0.60;;;9.20;99.90;;;;;;7385147;19;20018;-74
2023/10/28 04:06:55;;;;;;;3.03;0.52;;;9.20;99.90;;;;;;7378753;19;20014;-75
2023/10/28 04:09:28;;;;;;;1.05;0.50;;;9.20;99.90;;;;;;7382460;19;20011;-75
2023/10/28 04:12:01;;;;;;;0.80;0.60;;;9.20;99.90;;;;;;7367139;19;21693;-75
2023/10/28 04:14:34;;;;;;;2.60;0.70;;;9.20;99.90;;;;;;7379624;19;20064;-75
2023/10/28 04:17:06;;;;;;;3.58;0.60;;;9.20;99.90;;;;;;7376843;19;21545;-74
2023/10/28 04:19:39;;;;;;;2.27;0.70;;;9.20;99.90;;;;;;7410660;19;20057;-75
2023/10/28 04:22:11;;;;;;;3.40;0.50;;;9.20;99.90;;;;;;7347919;19;20031;-75
2023/10/28 04:24:44;;;;;;;1.38;0.55;;;9.30;99.90;;;;;;7362398;19;21776;-75
2023/10/28 04:27:17;;;;;;;3.03;0.50;;;9.40;99.90;;;;;;7375427;19;22677;-75
2023/10/28 04:29:50;;;;;;;1.97;0.63;;;9.40;99.90;;;;;;7363916;19;20025;-75
2023/10/28 04:32:23;;;;;;;;;;;9.40;99.90;;;;;;7381204;19;20018;-72
2023/10/28 04:34:55;;;;;;;1.58;0.47;;;9.30;99.90;;;;;;7353463;19;20992;-75
2023/10/28 04:37:39;;;;;;;2.38;0.93;;;9.40;99.90;;;;;;7373376;19;20017;-75
2023/10/28 04:40:12;;;;;;;1.70;0.73;;;9.40;99.90;;;;;;7371400;19;20668;-74
2023/10/28 04:42:47;;;;;;;0.93;0.63;;;9.50;99.90;;;;;;7377098;19;20263;-74
2023/10/28 04:45:21;;;;;;;1.55;0.70;;;9.50;99.90;;;;;;7335989;19;20015;-74
2023/10/28 04:47:54;;;;;;;1.73;0.55;;;9.50;99.90;;;;;;7369842;19;20018;-74
2023/10/28 04:50:28;;;;;;;2.00;0.80;;;9.50;99.90;;;;;;7369147;19;20651;-74
2023/10/28 04:53:01;;;;;;;1.48;0.60;;;9.50;99.90;;;;;;7357248;19;20451;-75
2023/10/28 04:55:34;;;;;;;2.95;0.85;;;9.50;99.90;;;;;;7380745;19;20014;-75
2023/10/28 04:58:06;;;;;;;0.80;0.60;;;9.50;99.90;;;;;;7357493;19;20018;-75
2023/10/28 05:00:38;;;;;;;2.03;0.90;;;9.60;99.90;;;;;;7383427;19;20057;-75
2023/10/28 05:03:12;;;;;;;2.00;0.60;;;9.60;99.90;;;;;;7370075;19;20025;-75
2023/10/28 05:05:48;;;;;;;2.10;0.60;;;9.70;99.90;;;;;;7392921;19;20014;-76
2023/10/28 05:08:21;;;;;;;2.35;0.75;;;9.60;99.90;;;;;;7349212;19;20064;-75
2023/10/28 05:10:54;;;;;;;1.73;1.00;;;9.60;99.90;;;;;;7372706;19;20015;-74
2023/10/28 05:13:26;;;;;;;1.45;0.93;;;9.40;99.90;;;;;;7344144;19;20018;-75
2023/10/28 05:15:59;;;;;;;2.70;0.80;;;9.40;99.90;;;;;;7392311;19;20674;-74
2023/10/28 05:18:31;;;;;;;3.70;0.75;;;9.40;99.90;;;;;;7375693;19;20022;-73
2023/10/28 05:21:05;;;;;;;2.17;1.00;;;9.40;99.90;;;;;;7350288;19;21564;-73
2023/10/28 05:23:39;;;;;;;3.45;0.68;;;9.40;99.90;;;;;;7383715;19;20022;-72
2023/10/28 05:26:11;;;;;;;1.38;0.63;;;9.40;99.90;;;;;;7352630;19;21528;-75
2023/10/28 05:28:46;;;;;;;1.40;0.80;;;9.40;99.90;;;;;;7402457;19;20120;-75
2023/10/28 05:31:19;;;;;;;2.47;0.80;;;9.50;99.90;;;;;;7431348;19;20577;-74
2023/10/28 05:33:52;;;;;;;3.10;0.70;;;9.50;99.90;;;;;;7469468;19;21144;-73
2023/10/28 05:36:24;;;;;;;1.67;0.97;;;9.50;99.90;;;;;;7455478;19;20019;-75
2023/10/28 05:38:59;;;;;;;1.45;1.00;;;9.50;99.90;;;;;;7471097;19;20021;-73
2023/10/28 05:41:32;;;;;;;1.67;0.60;;;9.60;99.90;;;;;;7484814;19;20022;-73
2023/10/28 05:44:04;;;;;;;1.30;0.70;;;9.60;99.90;;;;;;7480170;19;22751;-74
2023/10/28 05:46:37;;;;;;;2.93;0.90;;;9.60;99.90;;;;;;7474296;19;20102;-74
2023/10/28 05:49:12;;;;;;;3.00;0.77;;;9.50;99.90;;;;;;7470524;19;20019;-74
2023/10/28 05:51:45;;;;;;;1.63;0.80;;;9.50;99.90;;;;;;7478451;19;20150;-74
2023/10/28 05:54:17;;;;;;;1.27;0.77;;;9.50;99.90;;;;;;7449403;19;20018;-74
2023/10/28 05:56:49;;;;;;;1.25;0.75;;;9.60;99.90;;;;;;7479135;19;20018;-73
2023/10/28 05:59:22;;;;;;;2.78;0.80;;;9.60;99.90;;;;;;7455163;19;21561;-74
2023/10/28 06:01:54;;;;;;;2.28;0.70;;;9.60;99.90;;;;;;7481771;19;21275;-74
2023/10/28 06:04:30;;;;;;;3.58;0.90;;;9.70;99.90;;;;;;7403492;19;21180;-76
2023/10/28 06:07:02;;;;;;;2.38;0.93;;;9.70;99.90;;;;;;7443789;19;20022;-76
2023/10/28 06:09:36;;;;;;;1.10;0.70;;;9.60;99.90;;;;;;7461390;19;20050;-76
2023/10/28 06:12:08;;;;;;;6.20;1.20;;;9.60;99.90;;;;;;7422030;19;21439;-76
2023/10/28 06:14:42;;;;;;;6.13;3.00;;;9.60;99.90;;;;;;7421679;19;20014;-75
2023/10/28 06:17:14;;;;;;;6.32;2.50;;;9.60;99.90;;;;;;7449802;19;20106;-76
2023/10/28 06:19:47;;;;;;;3.22;1.10;;;9.50;99.90;;;;;;7452414;19;20102;-76
2023/10/28 06:22:19;;;;;;;2.47;0.80;;;9.50;99.90;;;;;;7441950;19;20021;-75
2023/10/28 06:24:53;;;;;;;3.65;1.00;;;9.40;99.90;;;;;;7429820;19;20076;-75
2023/10/28 06:27:26;;;;;;;4.88;1.05;;;9.30;99.90;;;;;;7390953;19;22393;-77
2023/10/28 06:29:58;;;;;;;2.15;0.80;;;9.20;99.90;;;;;;7414085;19;20019;-77
2023/10/28 06:32:30;;;;;;;7.27;1.10;;;9.10;99.90;;;;;;7431845;19;20018;-76
2023/10/28 06:35:03;;;;;;;2.35;1.15;;;9.00;99.90;;;;;;7436874;19;20018;-77
2023/10/28 06:37:39;;;;;;;1.47;1.03;;;8.90;99.90;;;;;;7380508;19;20014;-77
2023/10/28 06:40:11;;;;;;;4.68;1.35;;;9.00;99.90;;;;;;7382797;19;20646;-77
2023/10/28 06:42:45;;;;;;;3.20;1.00;;;9.00;99.90;;;;;;7436908;19;20021;-77
2023/10/28 06:45:18;;;;;;;2.05;1.60;;;9.00;99.90;;;;;;7401004;19;21068;-76
2023/10/28 06:47:50;;;;;;;1.50;0.70;;;9.10;99.90;;;;;;7439562;19;20010;-76
2023/10/28 06:50:24;;;;;;;4.65;0.90;;;9.00;99.90;;;;;;7400112;19;20540;-76
2023/10/28 06:52:59;;;;;;;1.70;0.82;;;9.10;99.90;;;;;;7435572;19;20015;-75
2023/10/28 06:55:32;;;;;;;1.17;0.68;;;9.10;99.90;;;;;;7394841;19;20015;-76
2023/10/28 06:58:05;;;;;;;1.67;0.85;;;9.20;99.90;;;;;;7406406;19;20311;-78
2023/10/28 07:00:37;;;;;;;4.28;1.15;;;9.30;99.90;;;;;;7427737;19;20638;-76
2023/10/28 07:03:09;;;;;;;2.10;0.80;;;9.40;99.90;;;;;;7433898;19;20022;-77
2023/10/28 07:05:42;;;;;;;4.63;1.13;;;9.40;99.90;;;;;;7419477;19;20010;-76
2023/10/28 07:08:15;;;;;;;3.13;1.70;;;9.50;99.90;;;;;;7406565;19;20114;-72
2023/10/28 07:10:48;;;;;;;3.78;1.55;;;9.60;99.90;;;;;;7423307;19;20849;-71
2023/10/28 07:13:21;;;;;;;5.03;2.35;;;9.70;99.90;;;;;;7423758;19;20019;-70
2023/10/28 07:16:01;;;;;;;9.18;4.10;;;9.80;99.90;;;;;;7428077;19;20006;-70
2023/10/28 07:18:35;;;;;;;13.52;5.53;;;9.90;99.90;;;;;;7372268;19;20138;-70
2023/10/28 07:21:07;;;;;;;16.97;6.30;;;10.00;99.90;;;;;;7450828;19;20746;-71
2023/10/28 07:23:40;;;;;;;16.75;7.53;;;10.10;99.90;;;;;;7429699;19;20018;-70
2023/10/28 07:26:12;;;;;;;29.13;11.90;;;10.30;99.90;;;;;;7437251;19;20048;-72
2023/10/28 07:28:46;;;;;;;22.90;10.32;;;10.50;99.90;;;;;;7432361;19;20539;-72
2023/10/28 07:31:18;;;;;;;24.48;8.23;;;10.60;99.90;;;;;;7446236;19;20442;-72
2023/10/28 07:33:50;;;;;;;11.70;4.95;;;10.80;99.90;;;;;;7432466;19;20022;-72
2023/10/28 07:36:23;;;;;;;6.00;2.95;;;10.80;99.90;;;;;;7443567;19;20025;-72
2023/10/28 07:38:55;;;;;;;4.95;2.30;;;10.90;99.90;;;;;;7468571;19;20019;-72
2023/10/28 07:41:29;;;;;;;4.57;1.48;;;11.10;99.90;;;;;;7449937;19;20015;-73
2023/10/28 07:44:03;;;;;;;1.92;1.10;;;11.00;99.90;;;;;;7448382;19;20018;-74
2023/10/28 07:46:35;;;;;;;2.65;1.30;;;11.10;99.90;;;;;;7421049;19;21418;-72
2023/10/28 07:49:10;;;;;;;4.07;1.67;;;11.10;99.90;;;;;;7404315;19;20022;-71
2023/10/28 07:51:43;;;;;;;2.95;1.23;;;11.20;99.90;;;;;;7445606;19;22135;-74
2023/10/28 07:54:15;;;;;;;3.20;1.15;;;11.20;99.90;;;;;;7410279;19;20014;-73
2023/10/28 07:56:48;;;;;;;3.70;1.50;;;11.30;99.90;;;;;;7393518;19;20089;-72
2023/10/28 07:59:21;;;;;;;4.28;1.42;;;11.30;99.90;;;;;;7397333;19;21274;-75
2023/10/28 08:01:53;;;;;;;3.05;1.63;;;11.30;99.90;;;;;;7416859;19;20022;-73
2023/10/28 08:04:25;;;;;;;7.50;2.67;;;11.30;99.90;;;;;;7461713;19;20028;-76
2023/10/28 08:06:58;;;;;;;7.15;3.58;;;11.40;99.90;;;;;;7440342;19;20010;-73
2023/10/28 08:09:30;;;;;;;10.73;5.13;;;11.50;99.90;;;;;;7461331;19;20007;-75
2023/10/28 08:12:04;;;;;;;7.18;4.00;;;11.60;99.90;;;;;;7460877;19;20519;-73
2023/10/28 08:14:37;;;;;;;8.20;4.32;;;11.60;99.90;;;;;;7444973;19;20583;-74
2023/10/28 08:17:10;;;;;;;8.85;3.38;;;11.60;99.90;;;;;;7447899;19;20019;-71
2023/10/28 08:19:43;;;;;;;4.78;2.63;;;11.70;99.90;;;;;;7421949;19;21020;-71
2023/10/28 08:22:15;;;;;;;4.33;2.70;;;11.70;99.90;;;;;;7455241;19;20045;-71
2023/10/28 08:24:48;;;;;;;6.93;3.97;;;11.80;99.90;;;;;;7445731;19;20021;-75
2023/10/28 08:27:20;;;;;;;9.00;4.68;;;11.80;99.90;;;;;;7458593;19;21543;-71
2023/10/28 08:29:54;;;;;;;12.80;5.30;;;11.90;99.90;;;;;;7474061;19;22968;-74
2023/10/28 08:32:27;;;;;;;11.48;5.60;;;11.90;99.90;;;;;;7451254;19;20946;-71
2023/10/28 08:35:00;;;;;;;;;;;12.00;99.90;;;;;;7439627;19;21426;-72
2023/10/28 08:37:32;;;;;;;5.95;3.20;;;12.10;99.90;;;;;;7459897;19;19910;-72
2023/10/28 08:40:08;;;;;;;4.70;3.17;;;12.10;99.90;;;;;;7474700;19;20014;-72
2023/10/28 08:42:40;;;;;;;5.53;3.47;;;12.10;99.90;;;;;;7474073;19;20018;-74
2023/10/28 08:45:15;;;;;;;5.43;3.28;;;12.20;99.90;;;;;;7468718;19;21596;-71
2023/10/28 08:47:48;;;;;;;5.25;3.13;;;12.30;99.90;;;;;;7433698;19;21516;-72
2023/10/28 08:50:27;;;;;;;5.78;2.67;;;12.40;99.90;;;;;;7414284;19;20014;-71
2023/10/28 08:53:03;;;;;;;5.13;3.35;;;12.50;99.90;;;;;;7471958;19;20022;-72
2023/10/28 08:55:39;;;;;;;5.22;2.13;;;12.60;99.90;;;;;;7463367;19;20763;-73
2023/10/28 08:58:12;;;;;;;7.18;2.22;;;12.60;99.90;;;;;;7485644;19;20011;-73
2023/10/28 09:00:50;;;;;;;3.10;1.75;;;12.70;99.90;;;;;;7467814;19;20054;-72
2023/10/28 09:03:30;;;;;;;1.45;1.00;;;12.80;99.90;;;;;;7447021;19;20019;-74
2023/10/28 09:06:04;;;;;;;2.42;1.08;;;12.90;99.90;;;;;;7460905;19;20021;-72
2023/10/28 09:08:38;;;;;;;5.67;1.00;;;12.90;99.90;;;;;;7469478;19;20011;-73
2023/10/28 09:11:11;;;;;;;1.48;0.90;;;13.00;99.90;;;;;;7495727;19;20018;-74
2023/10/28 09:13:47;;;;;;;1.30;0.80;;;13.00;99.90;;;;;;7459503;19;20018;-74
2023/10/28 09:16:20;;;;;;;1.83;0.98;;;13.00;99.90;;;;;;7456741;19;20801;-73
2023/10/28 09:18:53;;;;;;;3.67;0.95;;;13.10;99.90;;;;;;7452376;19;21848;-72
2023/10/28 09:21:25;;;;;;;1.77;0.70;;;13.20;99.90;;;;;;7453045;19;20663;-73
2023/10/28 09:24:01;;;;;;;3.80;0.80;;;13.20;99.90;;;;;;7448681;19;22425;-73
2023/10/28 09:26:34;;;;;;;3.50;0.80;;;13.20;99.90;;;;;;7480477;19;20364;-71
2023/10/28 09:29:07;;;;;;;5.10;0.60;;;13.40;99.90;;;;;;7425373;19;20030;-72
2023/10/28 09:31:41;;;;;;;2.67;0.85;;;13.50;99.90;;;;;;7456007;19;20289;-71
2023/10/28 09:34:16;;;;;;;4.18;1.58;;;13.60;99.90;;;;;;7467461;19;20011;-71
2023/10/28 09:36:49;;;;;;;4.22;0.77;;;13.70;99.90;;;;;;7440602;19;20011;-71
2023/10/28 09:39:24;;;;;;;1.73;0.73;;;13.70;99.90;;;;;;7473854;19;20022;-70
2023/10/28 09:41:56;;;;;;;;;;;13.70;99.90;;;;;;7452293;19;20052;-71
2023/10/28 09:44:29;;;;;;;4.25;0.95;;;13.90;99.90;;;;;;7450621;19;20824;-71
2023/10/28 09:47:04;;;;;;;1.02;0.60;;;13.80;99.90;;;;;;7447308;19;20043;-70
2023/10/28 09:49:42;;;;;;;2.63;0.82;;;13.90;99.90;;;;;;7464876;19;20129;-72
2023/10/28 09:52:18;;;;;;;4.85;0.90;;;13.90;99.90;;;;;;7457503;19;20014;-72
2023/10/28 09:54:57;;;;;;;2.03;0.50;;;14.10;99.90;;;;;;7470504;19;20029;-73
2023/10/28 09:57:30;;;;;;;1.45;0.60;;;14.00;99.90;;;;;;7467606;19;20082;-72
2023/10/28 10:00:09;;;;;;;4.30;1.13;;;14.10;99.90;;;;;;7450983;19;20066;-72
2023/10/28 10:03:16;;;;;;;1.38;0.60;;;14.20;99.90;;;;;;7441458;19;20090;-72
2023/10/28 10:05:51;;;;;;;4.00;0.93;;;14.30;99.90;;;;;;7495098;19;20014;-72
2023/10/28 10:08:24;;;;;;;1.52;0.60;;;14.40;99.90;;;;;;7484509;19;20022;-73
2023/10/28 10:10:57;;;;;;;3.05;0.88;;;14.50;99.90;;;;;;7458167;19;20151;-73
2023/10/28 10:13:40;;;;;;;1.95;0.90;;;14.50;99.90;;;;;;7467433;19;20053;-75
2023/10/28 10:16:43;;;;;;;5.65;1.92;;;14.60;99.90;;;;;;7442518;19;20945;-71
2023/10/28 10:19:22;;;;;;;1.80;0.73;;;14.60;99.90;;;;;;7442014;19;20018;-71
2023/10/28 10:21:56;;;;;;;2.47;0.85;;;14.70;99.90;;;;;;7470611;19;20056;-72
2023/10/28 10:24:29;;;;;;;3.70;0.82;;;14.70;99.90;;;;;;7449022;19;22332;-71
2023/10/28 10:27:05;;;;;;;3.95;0.95;;;14.80;98.90;;;;;;7460677;19;20654;-71
2023/10/28 10:29:42;;;;;;;3.15;1.00;;;14.80;99.70;;;;;;7448499;19;20015;-74
2023/10/28 10:32:16;;;;;;;1.75;0.50;;;14.90;98.80;;;;;;7465860;19;26316;-73
2023/10/28 10:34:50;;;;;;;2.50;0.85;;;14.90;98.70;;;;;;7482197;19;20056;-72
2023/10/28 10:37:23;;;;;;;;;;;15.00;99.80;;;;;;7434718;19;20014;-70
2023/10/28 10:40:07;;;;;;;1.52;0.70;;;15.10;98.70;;;;;;7441305;19;19926;-72
2023/10/28 10:42:40;;;;;;;1.80;0.60;;;15.30;98.00;;;;;;7431385;19;20022;-73
2023/10/28 10:45:17;;;;;;;3.13;0.73;;;15.40;97.10;;;;;;7466502;19;22232;-74
2023/10/28 10:47:50;;;;;;;3.03;0.85;;;15.40;97.80;;;;;;7440627;19;21567;-74
2023/10/28 10:50:22;;;;;;;4.10;0.90;;;15.40;97.40;;;;;;7460098;19;20021;-75
2023/10/28 10:52:56;;;;;;;2.10;0.60;;;15.40;97.80;;;;;;7457364;19;20014;-72
2023/10/28 10:55:30;;;;;;;1.25;0.68;;;15.50;96.90;;;;;;7440234;19;20139;-72
2023/10/28 10:58:03;;;;;;;;;;;15.60;97.10;;;;;;7462845;19;20484;-71
2023/10/28 11:00:37;;;;;;;3.08;0.60;;;15.60;97.70;;;;;;7438596;19;19919;-71
2023/10/28 11:03:11;;;;;;;5.20;0.93;;;15.60;97.00;;;;;;7474128;19;20121;-72
2023/10/28 11:05:44;;;;;;;3.00;0.68;;;15.50;96.70;;;;;;7458223;19;21453;-77
2023/10/28 11:08:20;;;;;;;2.13;0.90;;;15.40;97.10;;;;;;7461667;19;20098;-77
2023/10/28 11:10:53;;;;;;;2.10;0.95;;;15.60;97.00;;;;;;7451289;19;20018;-75
2023/10/28 11:13:26;;;;;;;5.03;1.25;;;17.70;96.30;;;;;;7470994;19;20025;-74
2023/10/28 11:15:59;;;;;;;3.05;1.25;;;21.60;90.10;;;;;;7447583;19;20019;-75
2023/10/28 11:18:33;;;;;;;3.35;0.98;;;22.90;81.50;;;;;;7477178;19;20014;-77
2023/10/28 11:21:06;;;;;;;2.80;1.17;;;21.90;79.30;;;;;;7468972;19;20025;-77
2023/10/28 11:23:39;;;;;;;3.35;1.55;;;20.90;77.40;;;;;;7442779;19;20018;-77
2023/10/28 11:26:17;;;;;;;2.55;1.33;;;23.40;72.50;;;;;;7455879;19;20010;-78
2023/10/28 11:28:50;;;;;;;2.40;0.98;;;25.80;64.40;;;;;;7474778;19;21974;-75
2023/10/28 11:31:23;;;;;;;3.33;1.00;;;26.10;59.80;;;;;;7490935;19;20010;-77
2023/10/28 11:33:57;;;;;;;3.20;1.17;;;27.30;58.00;;;;;;7457238;19;20021;-76
2023/10/28 11:36:33;;;;;;;3.38;1.00;;;28.10;55.60;;;;;;7475136;19;20191;-76
2023/10/28 11:39:13;;;;;;;3.33;0.75;;;28.40;53.10;;;;;;7461814;19;21657;-78
2023/10/28 11:41:48;;;;;;;3.00;0.80;;;27.90;53.60;;;;;;7463424;19;20014;-78
2023/10/28 11:44:27;;;;;;;3.38;0.90;;;27.80;54.30;;;;;;7478489;19;20146;-75
2023/10/28 11:47:00;;;;;;;1.63;0.65;;;27.00;53.90;;;;;;7478579;19;25899;-75
2023/10/28 11:49:34;;;;;;;1.13;0.80;;;26.60;53.80;;;;;;7462789;19;20026;-76
2023/10/28 11:52:07;;;;;;;2.33;1.00;;;25.70;51.90;;;;;;7473368;19;20017;-79
2023/10/28 11:54:40;;;;;;;2.90;0.70;;;22.90;53.70;;;;;;7452532;19;20007;-76
2023/10/28 11:57:12;;;;;;;2.80;1.00;;;22.60;57.90;;;;;;7455575;19;22030;-75
2023/10/28 11:59:44;;;;;;;2.03;0.80;;;22.90;57.40;;;;;;7485548;19;20026;-76
2023/10/28 12:02:17;;;;;;;2.47;0.82;;;21.30;59.30;;;;;;7502035;19;20018;-76
2023/10/28 12:04:49;;;;;;;3.17;0.90;;;20.00;63.20;;;;;;7481800;19;21199;-77
2023/10/28 12:07:22;;;;;;;2.07;0.90;;;18.90;65.60;;;;;;7481440;19;20117;-76
2023/10/28 12:09:55;;;;;;;3.83;0.90;;;18.30;68.10;;;;;;7474442;19;20359;-77
2023/10/28 12:12:28;;;;;;;2.42;0.75;;;17.80;69.70;;;;;;7507987;19;20038;-77
2023/10/28 12:15:01;;;;;;;1.60;0.95;;;17.50;69.20;;;;;;7474948;19;21001;-76
2023/10/28 12:17:34;;;;;;;2.78;1.00;;;17.30;70.40;;;;;;7458315;19;20018;-76
2023/10/28 12:20:07;;;;;;;2.65;1.17;;;17.60;72.10;;;;;;7485964;19;20010;-76
2023/10/28 12:22:41;;;;;;;3.33;0.95;;;18.20;70.30;;;;;;7468190;19;20509;-75
2023/10/28 12:25:14;;;;;;;4.03;1.08;;;17.70;69.60;;;;;;7487795;19;20704;-75
2023/10/28 12:27:47;;;;;;;4.13;1.13;;;17.50;71.20;;;;;;7496662;19;20014;-76
2023/10/28 12:30:19;;;;;;;13.30;1.10;;;18.10;69.90;;;;;;7496071;19;20519;-75
2023/10/28 12:32:52;;;;;;;4.00;1.20;;;19.60;67.90;;;;;;7493096;19;21502;-77
2023/10/28 12:35:25;;;;;;;3.05;0.93;;;19.60;66.50;;;;;;7489867;19;20019;-77
2023/10/28 12:37:57;;;;;;;4.68;1.20;;;18.80;67.90;;;;;;7478356;19;20025;-78
2023/10/28 12:40:32;;;;;;;2.83;1.10;;;18.20;70.10;;;;;;7512844;19;20018;-77
2023/10/28 12:43:04;;;;;;;5.15;1.30;;;18.30;69.10;;;;;;7488810;19;20100;-77
2023/10/28 12:45:37;;;;;;;3.42;1.48;;;18.50;69.20;;;;;;7493595;19;22017;-75
2023/10/28 12:48:10;;;;;;;2.97;1.38;;;20.20;66.20;;;;;;7490711;19;20018;-78
2023/10/28 12:50:43;;;;;;;2.80;1.20;;;21.70;62.60;;;;;;7479671;19;20015;-75
2023/10/28 12:53:15;;;;;;;2.30;1.10;;;21.00;61.60;;;;;;7497448;19;20010;-75
2023/10/28 12:55:47;;;;;;;2.65;1.20;;;21.40;60.80;;;;;;7498804;19;20018;-75
2023/10/28 12:58:20;;;;;;;3.47;1.13;;;21.60;60.40;;;;;;7484249;19;20014;-77
2023/10/28 13:00:53;;;;;;;2.80;0.93;;;20.30;62.00;;;;;;7494500;19;20044;-75
2023/10/28 13:03:26;;;;;;;2.10;1.10;;;19.40;65.30;;;;;;7499414;19;20806;-76
2023/10/28 13:05:59;;;;;;;4.05;1.38;;;19.00;66.40;;;;;;7479472;19;21352;-74
2023/10/28 13:08:32;;;;;;;4.38;1.30;;;18.70;66.40;;;;;;7513464;19;20018;-77
2023/10/28 13:11:04;;;;;;;3.17;1.15;;;18.90;66.00;;;;;;7476950;19;20456;-77
2023/10/28 13:13:37;;;;;;;3.05;0.93;;;18.90;66.30;;;;;;7482756;19;20049;-76
2023/10/28 13:16:11;;;;;;;3.45;0.93;;;18.00;67.00;;;;;;6986523;19;10000118;-76
2023/10/28 13:18:44;;;;;;;2.88;1.15;;;17.60;69.40;;;;;;7487723;19;20098;-77
2023/10/28 13:21:17;;;;;;;3.03;0.98;;;17.40;70.40;;;;;;7484487;19;20018;-77
2023/10/28 13:23:51;;;;;;;2.00;1.00;;;17.30;70.70;;;;;;7519235;19;20028;-75
2023/10/28 13:26:24;;;;;;;2.47;1.10;;;17.20;70.80;;;;;;7486833;19;20026;-75